Alcalde

2020-09-27 20:00:00

  • imperial
Date Time Air Temperature Relative Humidity Wind Speed Wind Dir. Precipitation Solar Radiation Soil Temperature Soil Temperature Soil Temperature Soil Temperature Soil Temperature
5cm 10cm 20cm 50cm 100cm
US/Mountain F % MPH deg in MJ/m^2 F F F F F
max min avg max min max avg avg
2020-09-26 22:00:00 63.0 56.7 61.5 35.0 23.0 5.7 1.8 90.0 0.00 0.0005040 -147.8 72.1 60.8 60.8 62.2
2020-09-26 23:00:00 56.7 53.2 54.9 42.0 35.0 3.5 0.8 19.0 0.00 0.0002520 -147.8 72.1 60.4 60.8 62.2
2020-09-27 00:00:00 60.1 50.2 53.6 51.0 19.0 5.1 1.5 31.0 0.00 0.0000720 -147.8 72.1 60.3 60.8 62.1
2020-09-27 01:00:00 60.1 49.1 54.5 51.0 19.0 2.0 0.5 274.0 0.00 0.0001080 -147.8 72.1 59.9 61.2 62.1
2020-09-27 02:00:00 49.1 48.2 48.6 52.0 43.0 4.2 0.6 94.0 0.00 0.0000720 -147.8 72.1 59.7 61.2 62.1
2020-09-27 03:00:00 48.4 44.4 46.0 54.0 47.0 2.6 0.4 114.0 0.00 0.0000000 -147.8 72.1 59.4 61.2 62.2
2020-09-27 04:00:00 44.8 43.0 43.5 57.0 53.0 2.9 0.6 102.0 0.00 0.0000000 -147.8 72.1 59.0 61.2 62.2
2020-09-27 05:00:00 43.3 40.3 42.8 61.0 54.0 4.9 1.6 105.0 0.00 0.0000000 -147.8 72.1 58.8 61.2 62.2
2020-09-27 06:00:00 40.8 39.2 40.1 68.0 61.0 6.4 0.9 87.0 0.00 0.0000000 -147.8 72.1 58.5 61.2 62.1
2020-09-27 07:00:00 39.2 36.3 37.8 80.0 67.0 2.9 0.5 277.0 0.00 0.0025200 -147.8 72.1 58.3 61.2 62.2
2020-09-27 08:00:00 38.3 36.3 36.9 83.0 78.0 2.3 0.4 146.0 0.00 0.0500400 -147.8 72.1 57.9 61.2 62.1
2020-09-27 09:00:00 53.4 38.3 42.6 78.0 35.0 3.0 0.5 215.0 0.00 0.6336000 -147.8 72.1 57.4 60.8 62.1
2020-09-27 10:00:00 58.8 53.4 55.2 35.0 31.0 5.3 2.9 205.0 0.00 1.5318000 -147.8 72.1 57.4 60.8 62.2
2020-09-27 11:00:00 69.4 58.8 63.7 31.0 19.0 6.4 2.6 209.0 0.00 2.1027600 -147.8 72.1 57.4 60.8 62.1
2020-09-27 12:00:00 77.0 69.4 72.5 19.0 13.0 5.3 2.3 211.0 0.00 2.5243200 -147.8 72.1 57.4 60.8 62.2
2020-09-27 13:00:00 82.6 77.0 79.3 17.0 13.0 9.0 2.8 205.0 0.00 2.7536400 -147.8 72.1 57.7 61.2 62.2
2020-09-27 14:00:00 84.0 81.0 82.8 15.0 14.0 16.9 5.8 253.0 0.00 2.7507600 -147.8 72.1 58.3 60.8 62.2
2020-09-27 15:00:00 84.6 84.0 84.2 15.0 12.0 17.3 8.0 263.0 0.00 2.5516800 -147.8 72.1 58.8 60.8 62.2
2020-09-27 16:00:00 84.7 84.0 84.6 13.0 12.0 18.5 9.9 255.0 0.00 2.1607200 -147.8 72.1 59.4 60.8 62.2
2020-09-27 17:00:00 84.2 82.9 83.8 13.0 10.0 16.3 8.6 253.0 0.00 1.5796800 -147.8 72.1 59.9 60.8 62.2
2020-09-27 18:00:00 82.9 80.2 81.9 12.0 9.0 16.6 7.9 238.0 0.00 0.9306000 -147.8 72.1 60.3 60.8 62.2
2020-09-27 19:00:00 80.2 74.3 78.1 14.0 12.0 11.0 5.0 235.0 0.00 0.1929240 -147.8 72.1 60.4 60.8 62.2
2020-09-27 20:00:00 75.0 73.8 74.1 15.0 13.0 13.9 5.9 222.0 0.00 0.0010800 -147.8 72.1 60.4 60.8 62.2

Data is presented as is, with no certification of correctness. DO NOT USE IN LEGAL PROCEEDINGS.